createdAt,value
2022-11-01T00:00:22.969Z,0.00
2022-11-01T00:01:22.886Z,0.00
2022-11-01T00:02:22.889Z,0.00
2022-11-01T00:03:22.824Z,1.00
2022-11-01T00:04:22.871Z,0.00
2022-11-01T00:05:22.825Z,0.00
2022-11-01T00:06:22.835Z,0.00
2022-11-01T00:07:22.835Z,0.00
2022-11-01T00:08:22.784Z,0.00
2022-11-01T00:09:22.804Z,0.00
2022-11-01T00:10:22.799Z,0.00
2022-11-01T00:11:22.774Z,0.00
2022-11-01T00:12:22.760Z,0.00
2022-11-01T00:13:22.775Z,0.00
2022-11-01T00:14:22.702Z,0.00
2022-11-01T00:15:22.709Z,0.00
2022-11-01T00:16:22.744Z,0.00
2022-11-01T00:17:22.741Z,0.00
2022-11-01T00:18:22.692Z,0.00
2022-11-01T00:19:22.663Z,0.00
2022-11-01T00:20:22.650Z,0.00
2022-11-01T00:21:22.647Z,0.00
2022-11-01T00:22:22.710Z,0.00
2022-11-01T00:23:22.661Z,0.00
2022-11-01T00:24:22.664Z,0.00
2022-11-01T00:25:22.618Z,0.00
2022-11-01T00:26:22.598Z,0.00
2022-11-01T00:27:22.637Z,0.00
2022-11-01T00:28:22.607Z,0.00
2022-11-01T00:29:22.574Z,0.00
2022-11-01T00:30:22.581Z,0.00
2022-11-01T00:31:22.568Z,0.00
2022-11-01T00:32:22.593Z,0.00
2022-11-01T00:33:22.543Z,0.00
2022-11-01T00:34:22.522Z,0.00
2022-11-01T00:35:22.524Z,0.00
2022-11-01T00:36:22.484Z,0.00
2022-11-01T00:37:22.515Z,0.00
2022-11-01T00:38:22.487Z,0.00
2022-11-01T00:39:24.277Z,0.00
2022-11-01T00:40:22.495Z,0.00
2022-11-01T00:41:22.518Z,0.00
2022-11-01T00:42:22.466Z,0.00
2022-11-01T00:43:22.465Z,0.00
2022-11-01T00:44:22.419Z,0.00
2022-11-01T00:45:22.467Z,0.00
2022-11-01T00:46:22.434Z,0.00
2022-11-01T00:47:22.403Z,0.00
2022-11-01T00:48:22.423Z,0.00
2022-11-01T00:49:22.354Z,0.00
2022-11-01T00:50:22.388Z,0.00
2022-11-01T00:51:22.379Z,0.00
2022-11-01T00:52:22.333Z,0.00
2022-11-01T00:53:22.382Z,0.00
2022-11-01T00:54:22.343Z,0.00
2022-11-01T00:55:22.349Z,0.00
2022-11-01T00:56:22.316Z,0.00
2022-11-01T00:57:22.291Z,0.00
2022-11-01T00:58:22.294Z,0.00
2022-11-01T00:59:22.282Z,0.00
2022-11-01T01:00:22.271Z,0.00
2022-11-01T01:01:22.399Z,0.00
2022-11-01T01:02:22.345Z,0.00
2022-11-01T01:03:22.254Z,0.00
2022-11-01T01:04:22.258Z,0.00
2022-11-01T01:05:22.214Z,0.00
2022-11-01T01:06:22.189Z,0.00
2022-11-01T01:07:22.181Z,0.00
2022-11-01T01:08:22.223Z,0.00
2022-11-01T01:09:22.174Z,0.00
2022-11-01T01:10:22.175Z,0.00
2022-11-01T01:11:22.176Z,0.00
2022-11-01T01:12:22.171Z,0.00
2022-11-01T01:13:22.117Z,0.00
2022-11-01T01:14:22.171Z,0.00
2022-11-01T01:15:22.145Z,0.00
2022-11-01T01:16:22.110Z,0.00
2022-11-01T01:17:22.119Z,0.00
2022-11-01T01:18:22.067Z,0.00
2022-11-01T01:19:22.335Z,0.00
2022-11-01T01:20:22.088Z,0.00
2022-11-01T01:21:22.096Z,0.00
2022-11-01T01:22:22.021Z,0.00
2022-11-01T01:23:22.029Z,0.00
2022-11-01T01:24:22.011Z,0.00
2022-11-01T01:25:22.005Z,0.00
2022-11-01T01:26:22.030Z,0.00
2022-11-01T01:27:22.016Z,0.00
2022-11-01T01:28:22.010Z,0.00
2022-11-01T01:29:22.009Z,0.00
2022-11-01T01:30:21.951Z,0.00
2022-11-01T01:31:22.069Z,0.00
2022-11-01T01:32:21.963Z,0.00
2022-11-01T01:33:21.972Z,0.00
2022-11-01T01:34:21.938Z,0.00
2022-11-01T01:35:21.900Z,0.00
2022-11-01T01:36:21.908Z,0.00
2022-11-01T01:37:21.915Z,0.00
2022-11-01T01:38:21.887Z,0.00
2022-11-01T01:39:21.883Z,0.00
2022-11-01T01:40:21.860Z,0.00
2022-11-01T01:41:21.892Z,0.00
2022-11-01T01:42:21.845Z,0.00
2022-11-01T01:43:21.835Z,0.00
2022-11-01T01:44:21.827Z,0.00
2022-11-01T01:45:21.801Z,0.00
2022-11-01T01:46:21.803Z,0.00
2022-11-01T01:47:21.820Z,0.00
2022-11-01T01:48:21.775Z,0.00
2022-11-01T01:49:21.778Z,0.00
2022-11-01T01:50:21.784Z,0.00
2022-11-01T01:51:21.756Z,0.00
2022-11-01T01:52:21.777Z,0.00
2022-11-01T01:53:21.740Z,0.00
2022-11-01T01:54:21.761Z,0.00
2022-11-01T01:55:21.708Z,0.00
2022-11-01T01:56:21.703Z,0.00
2022-11-01T01:57:21.712Z,0.00
2022-11-01T01:58:21.665Z,0.00
2022-11-01T01:59:21.691Z,0.00
2022-11-01T02:00:21.661Z,0.00
2022-11-01T02:01:21.818Z,0.00
2022-11-01T02:02:21.781Z,0.00
2022-11-01T02:03:21.646Z,0.00
2022-11-01T02:04:21.617Z,0.00
2022-11-01T02:05:21.599Z,0.00
2022-11-01T02:06:21.736Z,0.00
2022-11-01T02:07:21.579Z,0.00
2022-11-01T02:08:21.609Z,0.00
2022-11-01T02:09:21.604Z,0.00
2022-11-01T02:10:21.586Z,0.00
2022-11-01T02:11:21.589Z,0.00
2022-11-01T02:12:21.584Z,0.00
2022-11-01T02:13:21.508Z,0.00
2022-11-01T02:14:21.557Z,0.00
2022-11-01T02:15:21.564Z,0.00
2022-11-01T02:16:21.510Z,0.00
2022-11-01T02:17:21.517Z,0.00
2022-11-01T02:18:21.527Z,0.00
2022-11-01T02:19:21.491Z,0.00
2022-11-01T02:20:21.586Z,0.00
2022-11-01T02:21:21.547Z,0.00
2022-11-01T02:22:21.505Z,0.00
2022-11-01T02:23:21.463Z,0.00
2022-11-01T02:24:21.449Z,0.00
2022-11-01T02:25:21.401Z,0.00
2022-11-01T02:26:21.439Z,0.00
2022-11-01T02:27:21.382Z,0.00
2022-11-01T02:28:21.465Z,0.00
2022-11-01T02:29:21.399Z,0.00
2022-11-01T02:30:21.439Z,0.00
2022-11-01T02:31:21.429Z,0.00
2022-11-01T02:32:21.384Z,0.00
2022-11-01T02:33:21.347Z,0.00
2022-11-01T02:34:21.341Z,0.00
2022-11-01T02:35:21.352Z,0.00
2022-11-01T02:36:21.371Z,0.00
2022-11-01T02:37:21.351Z,0.00
2022-11-01T02:38:21.322Z,0.00
2022-11-01T02:39:21.267Z,0.00
2022-11-01T02:40:21.269Z,0.00
2022-11-01T02:41:21.316Z,0.00
2022-11-01T02:42:21.280Z,0.00
2022-11-01T02:43:21.221Z,0.00
2022-11-01T02:44:21.203Z,0.00
2022-11-01T02:45:21.218Z,0.00
2022-11-01T02:46:21.218Z,0.00
2022-11-01T02:47:21.273Z,0.00
2022-11-01T02:48:21.181Z,0.00
2022-11-01T02:49:21.251Z,0.00
2022-11-01T02:50:21.196Z,0.00
2022-11-01T02:51:21.229Z,0.00
2022-11-01T02:52:21.139Z,0.00
2022-11-01T02:53:21.143Z,0.00
2022-11-01T02:54:21.170Z,0.00
2022-11-01T02:55:21.159Z,0.00
2022-11-01T02:56:21.041Z,1.00
2022-11-01T02:57:21.131Z,0.00
2022-11-01T02:58:21.091Z,0.00
2022-11-01T02:59:21.065Z,0.00
2022-11-01T03:00:21.107Z,0.00
2022-11-01T03:01:21.225Z,0.00
2022-11-01T03:02:21.094Z,0.00
2022-11-01T03:03:21.101Z,0.00
2022-11-01T03:04:21.066Z,0.00
2022-11-01T03:05:20.985Z,0.00
2022-11-01T03:06:20.992Z,0.00
2022-11-01T03:07:21.113Z,0.00
2022-11-01T03:08:21.921Z,0.00
2022-11-01T03:09:21.138Z,0.00
2022-11-01T03:10:20.968Z,0.00
2022-11-01T03:11:20.988Z,0.00
2022-11-01T03:12:21.066Z,0.00
2022-11-01T03:13:20.941Z,0.00
2022-11-01T03:14:21.003Z,0.00
2022-11-01T03:15:21.213Z,0.00
2022-11-01T03:16:20.909Z,0.00
2022-11-01T03:17:20.937Z,0.00
2022-11-01T03:18:20.864Z,0.00
2022-11-01T03:19:20.991Z,0.00
2022-11-01T03:20:20.872Z,0.00
2022-11-01T03:21:20.850Z,0.00
2022-11-01T03:22:20.900Z,0.00
2022-11-01T03:23:20.833Z,0.00
2022-11-01T03:24:20.830Z,0.00
2022-11-01T03:25:20.784Z,0.00
2022-11-01T03:26:20.819Z,0.00
2022-11-01T03:27:20.869Z,0.00
2022-11-01T03:28:20.773Z,0.00
2022-11-01T03:29:20.772Z,0.00
2022-11-01T03:30:20.753Z,0.00
2022-11-01T03:31:20.759Z,0.00
2022-11-01T03:32:20.749Z,0.00
2022-11-01T03:33:20.714Z,0.00
2022-11-01T03:34:20.718Z,0.00
2022-11-01T03:35:20.687Z,0.00
2022-11-01T03:36:20.677Z,0.00
2022-11-01T03:37:20.628Z,1.00
2022-11-01T03:38:20.670Z,0.00
2022-11-01T03:39:20.637Z,0.00
2022-11-01T03:40:20.646Z,0.00
2022-11-01T03:41:20.653Z,0.00
2022-11-01T03:42:20.638Z,0.00
2022-11-01T03:43:20.603Z,0.00
2022-11-01T03:44:20.620Z,0.00
2022-11-01T03:45:20.596Z,0.00
2022-11-01T03:46:20.587Z,0.00
2022-11-01T03:47:20.595Z,0.00
2022-11-01T03:48:20.570Z,0.00
2022-11-01T03:49:20.559Z,0.00
2022-11-01T03:50:20.541Z,0.00
2022-11-01T03:51:20.524Z,0.00
2022-11-01T03:52:20.538Z,0.00
2022-11-01T03:53:20.517Z,0.00
2022-11-01T03:54:20.524Z,0.00
2022-11-01T03:55:20.486Z,0.00
2022-11-01T03:56:20.476Z,0.00
2022-11-01T03:57:20.482Z,0.00
2022-11-01T03:58:20.488Z,0.00
2022-11-01T03:59:20.445Z,0.00
2022-11-01T04:00:20.453Z,0.00
2022-11-01T04:01:20.569Z,0.00
2022-11-01T04:02:20.460Z,0.00
2022-11-01T04:03:20.417Z,0.00
2022-11-01T04:04:20.432Z,0.00
2022-11-01T04:05:20.515Z,1.00
2022-11-01T04:06:20.525Z,0.00
2022-11-01T04:07:20.359Z,0.00
2022-11-01T04:08:20.392Z,0.00
2022-11-01T04:09:20.357Z,0.00
2022-11-01T04:10:20.353Z,0.00
2022-11-01T04:11:20.318Z,0.00
2022-11-01T04:12:20.315Z,0.00
2022-11-01T04:13:20.296Z,0.00
2022-11-01T04:14:20.283Z,1.00
2022-11-01T04:15:20.294Z,0.00
2022-11-01T04:16:20.299Z,0.00
2022-11-01T04:17:20.284Z,0.00
2022-11-01T04:18:20.294Z,0.00
2022-11-01T04:19:20.253Z,0.00
2022-11-01T04:20:20.235Z,0.00
2022-11-01T04:21:20.283Z,0.00
2022-11-01T04:22:23.604Z,0.00
2022-11-01T04:23:20.259Z,0.00
2022-11-01T04:24:20.226Z,0.00
2022-11-01T04:25:20.163Z,1.00
2022-11-01T04:26:20.185Z,0.00
2022-11-01T04:27:20.191Z,0.00
2022-11-01T04:28:20.186Z,0.00
2022-11-01T04:29:20.189Z,0.00
2022-11-01T04:30:20.170Z,0.00
2022-11-01T04:31:20.129Z,0.00
2022-11-01T04:32:20.193Z,0.00
2022-11-01T04:33:20.108Z,0.00
2022-11-01T04:34:20.106Z,0.00
2022-11-01T04:35:20.087Z,0.00
2022-11-01T04:36:20.117Z,0.00
2022-11-01T04:37:20.074Z,0.00
2022-11-01T04:38:20.085Z,0.00
2022-11-01T04:39:20.070Z,0.00
2022-11-01T04:40:19.996Z,1.00
2022-11-01T04:41:20.054Z,0.00
2022-11-01T04:42:20.011Z,1.00
2022-11-01T04:43:20.013Z,0.00
2022-11-01T04:44:20.006Z,0.00
2022-11-01T04:45:19.987Z,0.00
2022-11-01T04:46:19.997Z,0.00
2022-11-01T04:47:19.962Z,0.00
2022-11-01T04:48:19.960Z,0.00
2022-11-01T04:49:19.965Z,0.00
2022-11-01T04:50:19.934Z,0.00
2022-11-01T04:51:19.937Z,0.00
2022-11-01T04:52:19.923Z,0.00
2022-11-01T04:53:19.901Z,0.00
2022-11-01T04:54:19.940Z,0.00
2022-11-01T04:55:19.904Z,0.00
2022-11-01T04:56:19.883Z,0.00
2022-11-01T04:57:19.875Z,0.00
2022-11-01T04:58:19.895Z,0.00
2022-11-01T04:59:19.863Z,0.00
2022-11-01T05:00:19.797Z,1.00
2022-11-01T05:01:19.986Z,0.00
2022-11-01T05:02:19.916Z,0.00
2022-11-01T05:03:19.818Z,0.00
2022-11-01T05:04:19.790Z,0.00
2022-11-01T05:05:19.809Z,0.00
2022-11-01T05:06:19.780Z,0.00
2022-11-01T05:07:19.782Z,0.00
2022-11-01T05:08:19.760Z,0.00
2022-11-01T05:09:19.746Z,0.00
2022-11-01T05:10:19.740Z,0.00
2022-11-01T05:11:19.699Z,1.00
2022-11-01T05:12:19.716Z,0.00
2022-11-01T05:13:19.760Z,0.00
2022-11-01T05:14:19.720Z,0.00
2022-11-01T05:15:19.685Z,0.00
2022-11-01T05:16:20.623Z,0.00
2022-11-01T05:17:19.689Z,0.00
2022-11-01T05:18:19.648Z,0.00
2022-11-01T05:19:19.641Z,0.00
2022-11-01T05:20:19.641Z,0.00
2022-11-01T05:21:19.633Z,0.00
2022-11-01T05:22:19.636Z,0.00
2022-11-01T05:23:19.551Z,1.00
2022-11-01T05:24:19.620Z,0.00
2022-11-01T05:25:19.580Z,0.00
2022-11-01T05:26:19.577Z,0.00
2022-11-01T05:27:19.555Z,0.00
2022-11-01T05:28:19.574Z,0.00
2022-11-01T05:29:24.926Z,0.00
2022-11-01T05:30:19.533Z,0.00
2022-11-01T05:31:19.528Z,0.00
2022-11-01T05:32:19.461Z,1.00
2022-11-01T05:33:19.508Z,0.00
2022-11-01T05:34:19.510Z,0.00
2022-11-01T05:35:19.468Z,0.00
2022-11-01T05:36:19.512Z,0.00
2022-11-01T05:37:21.561Z,0.00
2022-11-01T05:38:19.477Z,0.00
2022-11-01T05:39:19.446Z,0.00
2022-11-01T05:40:19.430Z,0.00
2022-11-01T05:41:19.432Z,0.00
2022-11-01T05:42:19.435Z,0.00
2022-11-01T05:43:19.422Z,0.00
2022-11-01T05:44:19.408Z,0.00
2022-11-01T05:45:19.406Z,0.00
2022-11-01T05:46:19.370Z,0.00
2022-11-01T05:47:19.378Z,0.00
2022-11-01T05:48:19.342Z,0.00
2022-11-01T05:49:19.289Z,1.00
2022-11-01T05:50:19.346Z,0.00
2022-11-01T05:51:19.305Z,1.00
2022-11-01T05:52:19.310Z,0.00
2022-11-01T05:53:19.288Z,0.00
2022-11-01T05:54:19.284Z,0.00
2022-11-01T05:55:19.287Z,0.00
2022-11-01T05:56:19.294Z,1.00
2022-11-01T05:57:19.221Z,1.00
2022-11-01T05:58:19.187Z,1.00
2022-11-01T05:59:19.234Z,0.00
2022-11-01T06:00:19.219Z,0.00
2022-11-01T06:01:19.295Z,0.00
2022-11-01T06:02:19.256Z,0.00
2022-11-01T06:03:19.164Z,2.00
2022-11-01T06:04:19.151Z,1.00
2022-11-01T06:05:19.240Z,1.00
2022-11-01T06:06:19.305Z,1.00
2022-11-01T06:07:19.109Z,2.00
2022-11-01T06:08:19.108Z,2.00
2022-11-01T06:09:19.071Z,1.00
2022-11-01T06:10:19.085Z,1.00
2022-11-01T06:11:19.067Z,3.00
2022-11-01T06:12:19.077Z,3.00
2022-11-01T06:13:19.029Z,5.00
2022-11-01T06:14:19.043Z,6.00
2022-11-01T06:15:19.014Z,9.00
2022-11-01T06:16:19.064Z,8.00
2022-11-01T06:17:19.067Z,8.00
2022-11-01T06:18:18.980Z,11.00
2022-11-01T06:19:19.044Z,10.00
2022-11-01T06:20:18.978Z,8.00
2022-11-01T06:21:18.960Z,9.00
2022-11-01T06:22:18.953Z,9.00
2022-11-01T06:23:18.971Z,9.00
2022-11-01T06:24:18.967Z,8.00
2022-11-01T06:25:18.936Z,8.00
2022-11-01T06:26:18.912Z,11.00
2022-11-01T06:27:18.925Z,13.00
2022-11-01T06:28:18.887Z,9.00
2022-11-01T06:29:18.894Z,10.00
2022-11-01T06:30:18.869Z,12.00
2022-11-01T06:31:18.872Z,13.00
2022-11-01T06:32:18.847Z,17.00
2022-11-01T06:33:18.864Z,18.00
2022-11-01T06:34:18.856Z,19.00
2022-11-01T06:35:18.812Z,32.00
2022-11-01T06:36:18.806Z,26.00
2022-11-01T06:37:18.803Z,13.00
2022-11-01T06:38:18.783Z,14.00
2022-11-01T06:39:18.790Z,15.00
2022-11-01T06:40:18.833Z,18.00
2022-11-01T06:41:18.784Z,20.00
2022-11-01T06:42:18.744Z,21.00
2022-11-01T06:43:18.739Z,24.00
2022-11-01T06:44:18.731Z,26.00
2022-11-01T06:45:18.761Z,28.00
2022-11-01T06:46:18.761Z,30.00
2022-11-01T06:47:18.712Z,38.00
2022-11-01T06:48:18.677Z,44.00
2022-11-01T06:49:19.338Z,50.00
2022-11-01T06:50:18.682Z,45.00
2022-11-01T06:51:18.714Z,49.00
2022-11-01T06:52:18.649Z,56.00
2022-11-01T06:53:18.672Z,64.00
2022-11-01T06:54:18.623Z,61.00
2022-11-01T06:55:18.659Z,64.00
2022-11-01T06:56:18.627Z,62.00
2022-11-01T06:57:18.637Z,73.00
2022-11-01T06:58:18.600Z,75.00
2022-11-01T06:59:18.596Z,77.00
2022-11-01T07:00:18.588Z,81.00
2022-11-01T07:01:18.685Z,85.00
2022-11-01T07:02:19.950Z,90.00
2022-11-01T07:03:18.548Z,92.00
2022-11-01T07:04:18.548Z,95.00
2022-11-01T07:05:18.525Z,100.00
2022-11-01T07:06:18.548Z,109.00
2022-11-01T07:07:18.496Z,108.00
2022-11-01T07:08:18.502Z,117.00
2022-11-01T07:09:18.510Z,120.00
2022-11-01T07:10:18.466Z,126.00
2022-11-01T07:11:18.465Z,124.00
2022-11-01T07:12:18.489Z,124.00
2022-11-01T07:13:18.453Z,129.00
2022-11-01T07:14:18.440Z,125.00
2022-11-01T07:15:18.509Z,120.00
2022-11-01T07:16:18.415Z,124.00
2022-11-01T07:17:18.436Z,130.00
2022-11-01T07:18:18.396Z,136.00
2022-11-01T07:19:18.375Z,146.00
2022-11-01T07:20:18.395Z,155.00
2022-11-01T07:21:18.356Z,162.00
2022-11-01T07:22:18.442Z,160.00
2022-11-01T07:23:18.358Z,163.00
2022-11-01T07:24:18.344Z,179.00
2022-11-01T07:25:18.319Z,197.00
2022-11-01T07:26:18.338Z,200.00
2022-11-01T07:27:20.503Z,216.00
2022-11-01T07:28:18.294Z,221.00
2022-11-01T07:29:18.314Z,224.00
2022-11-01T07:30:18.271Z,224.00
2022-11-01T07:31:18.280Z,236.00
2022-11-01T07:32:18.302Z,242.00
2022-11-01T07:33:18.371Z,237.00
2022-11-01T07:34:18.219Z,235.00
2022-11-01T07:35:18.243Z,238.00
2022-11-01T07:36:18.213Z,236.00
2022-11-01T07:37:18.272Z,239.00
2022-11-01T07:38:18.569Z,251.00
2022-11-01T07:39:18.167Z,270.00
2022-11-01T07:40:18.186Z,246.00
2022-11-01T07:41:18.182Z,197.00
2022-11-01T07:42:18.200Z,169.00
2022-11-01T07:43:18.146Z,185.00
2022-11-01T07:44:18.189Z,146.00
2022-11-01T07:45:18.105Z,218.00
2022-11-01T07:46:18.110Z,245.00
2022-11-01T07:47:18.110Z,261.00
2022-11-01T07:48:18.089Z,243.00
2022-11-01T07:49:18.147Z,284.00
2022-11-01T07:50:18.077Z,231.00
2022-11-01T07:51:18.069Z,239.00
2022-11-01T07:52:18.058Z,227.00
2022-11-01T07:53:18.058Z,250.00
2022-11-01T07:54:18.107Z,256.00
2022-11-01T07:55:18.013Z,257.00
2022-11-01T07:56:18.002Z,268.00
2022-11-01T07:57:18.005Z,314.00
2022-11-01T07:58:18.016Z,278.00
2022-11-01T07:59:18.020Z,259.00
2022-11-01T08:00:18.091Z,272.00
2022-11-01T08:01:18.101Z,266.00
2022-11-01T08:02:18.112Z,287.00
2022-11-01T08:03:17.994Z,294.00
2022-11-01T08:04:17.932Z,293.00
2022-11-01T08:05:18.012Z,298.00
2022-11-01T08:06:18.071Z,290.00
2022-11-01T08:07:17.959Z,279.00
2022-11-01T08:08:18.027Z,281.00
2022-11-01T08:09:17.878Z,287.00
2022-11-01T08:10:17.895Z,257.00
2022-11-01T08:11:17.849Z,230.00
2022-11-01T08:12:17.891Z,209.00
2022-11-01T08:13:17.890Z,253.00
2022-11-01T08:14:17.847Z,268.00
2022-11-01T08:15:17.819Z,241.00
2022-11-01T08:16:17.816Z,250.00
2022-11-01T08:17:17.821Z,212.00
2022-11-01T08:18:17.837Z,247.00
2022-11-01T08:19:17.785Z,251.00
2022-11-01T08:20:17.788Z,281.00
2022-11-01T08:21:17.765Z,287.00
2022-11-01T08:22:17.836Z,253.00
2022-11-01T08:23:17.779Z,248.00
2022-11-01T08:24:17.746Z,253.00
2022-11-01T08:25:17.699Z,248.00
2022-11-01T08:26:17.730Z,269.00
2022-11-01T08:27:17.711Z,248.00
2022-11-01T08:28:17.671Z,260.00
2022-11-01T08:29:17.672Z,253.00
2022-11-01T08:30:17.666Z,256.00
2022-11-01T08:31:17.709Z,267.00
2022-11-01T08:32:17.645Z,272.00
2022-11-01T08:33:17.630Z,281.00
2022-11-01T08:34:17.611Z,285.00
2022-11-01T08:35:17.623Z,288.00
2022-11-01T08:36:17.632Z,271.00
2022-11-01T08:37:17.596Z,259.00
2022-11-01T08:38:17.614Z,263.00
2022-11-01T08:39:17.580Z,266.00
2022-11-01T08:40:17.547Z,274.00
2022-11-01T08:41:17.548Z,276.00
2022-11-01T08:42:17.569Z,283.00
2022-11-01T08:43:17.562Z,293.00
2022-11-01T08:44:17.531Z,300.00
2022-11-01T08:45:17.523Z,303.00
2022-11-01T08:46:17.486Z,298.00
2022-11-01T08:47:17.496Z,285.00
2022-11-01T08:48:17.480Z,271.00
2022-11-01T08:49:17.507Z,241.00
2022-11-01T08:50:17.481Z,191.00
2022-11-01T08:51:17.459Z,236.00
2022-11-01T08:52:17.449Z,185.00
2022-11-01T08:53:17.442Z,393.00
2022-11-01T08:54:17.406Z,406.00
2022-11-01T08:55:17.435Z,183.00
2022-11-01T08:56:17.396Z,351.00
2022-11-01T08:57:17.385Z,319.00
2022-11-01T08:58:17.388Z,306.00
2022-11-01T08:59:17.393Z,273.00
2022-11-01T09:00:17.402Z,320.00
2022-11-01T09:01:17.635Z,441.00
2022-11-01T09:02:17.701Z,272.00
2022-11-01T09:03:17.317Z,409.00
2022-11-01T09:04:17.307Z,285.00
2022-11-01T09:05:17.312Z,362.00
2022-11-01T09:06:17.322Z,324.00
2022-11-01T09:07:17.301Z,369.00
2022-11-01T09:08:17.283Z,392.00
2022-11-01T09:09:17.289Z,352.00
2022-11-01T09:10:17.248Z,349.00
2022-11-01T09:11:17.273Z,358.00
2022-11-01T09:12:21.925Z,344.00
2022-11-01T09:13:17.304Z,236.00
2022-11-01T09:14:17.220Z,344.00
2022-11-01T09:15:17.208Z,356.00
2022-11-01T09:16:17.195Z,348.00
2022-11-01T09:17:17.269Z,361.00
2022-11-01T09:18:17.196Z,281.00
2022-11-01T09:19:17.151Z,356.00
2022-11-01T09:20:17.193Z,307.00
2022-11-01T09:21:17.161Z,330.00
2022-11-01T09:22:17.125Z,351.00
2022-11-01T09:23:17.144Z,586.00
2022-11-01T09:24:17.153Z,373.00
2022-11-01T09:25:17.113Z,342.00
2022-11-01T09:26:17.142Z,360.00
2022-11-01T09:27:17.086Z,468.00
2022-11-01T09:28:17.192Z,509.00
2022-11-01T09:29:17.073Z,543.00
2022-11-01T09:30:17.068Z,459.00
2022-11-01T09:31:21.336Z,307.00
2022-11-01T09:32:17.083Z,342.00
2022-11-01T09:33:17.043Z,428.00
2022-11-01T09:34:17.023Z,364.00
2022-11-01T09:35:17.003Z,902.00
2022-11-01T09:36:17.003Z,294.00
2022-11-01T09:37:17.011Z,668.00
2022-11-01T09:38:17.033Z,327.00
2022-11-01T09:39:17.070Z,490.00
2022-11-01T09:40:16.952Z,370.00
2022-11-01T09:41:16.983Z,423.00
2022-11-01T09:42:17.009Z,579.00
2022-11-01T09:43:16.938Z,410.00
2022-11-01T09:44:16.958Z,638.00
2022-11-01T09:45:16.962Z,415.00
2022-11-01T09:46:16.968Z,376.00
2022-11-01T09:47:16.926Z,395.00
2022-11-01T09:48:16.887Z,766.00
2022-11-01T09:49:16.894Z,471.00
2022-11-01T09:50:16.921Z,695.00
2022-11-01T09:51:16.908Z,323.00
2022-11-01T09:52:16.858Z,467.00
2022-11-01T09:53:16.904Z,424.00
2022-11-01T09:54:16.830Z,279.00
2022-11-01T09:55:16.839Z,360.00
2022-11-01T09:56:16.829Z,473.00
2022-11-01T09:57:16.842Z,313.00
2022-11-01T09:58:16.851Z,363.00
2022-11-01T09:59:16.782Z,411.00
2022-11-01T10:00:16.770Z,405.00
2022-11-01T10:01:16.842Z,460.00
2022-11-01T10:02:16.855Z,433.00
2022-11-01T10:03:16.758Z,743.00
2022-11-01T10:04:16.743Z,410.00
2022-11-01T10:05:18.855Z,412.00
2022-11-01T10:06:16.711Z,756.00
2022-11-01T10:07:16.696Z,367.00
2022-11-01T10:08:16.940Z,419.00
2022-11-01T10:09:16.700Z,448.00
2022-11-01T10:10:16.643Z,455.00
2022-11-01T10:11:16.742Z,457.00
2022-11-01T10:12:16.669Z,678.00
2022-11-01T10:13:16.637Z,447.00
2022-11-01T10:14:16.644Z,425.00
2022-11-01T10:15:16.635Z,462.00
2022-11-01T10:16:16.591Z,470.00
2022-11-01T10:17:16.629Z,481.00
2022-11-01T10:18:16.586Z,475.00
2022-11-01T10:19:16.607Z,471.00
2022-11-01T10:20:16.580Z,466.00
2022-11-01T10:21:16.847Z,471.00
2022-11-01T10:22:16.608Z,472.00
2022-11-01T10:23:16.558Z,467.00
2022-11-01T10:24:16.542Z,466.00
2022-11-01T10:25:16.575Z,468.00
2022-11-01T10:26:16.534Z,472.00
2022-11-01T10:27:16.507Z,476.00
2022-11-01T10:28:16.468Z,471.00
2022-11-01T10:29:16.485Z,468.00
2022-11-01T10:30:16.505Z,472.00
2022-11-01T10:31:16.448Z,469.00
2022-11-01T10:32:16.442Z,476.00
2022-11-01T10:33:16.445Z,468.00
2022-11-01T10:34:16.450Z,471.00
2022-11-01T10:35:16.424Z,468.00
2022-11-01T10:36:16.422Z,467.00
2022-11-01T10:37:16.418Z,466.00
2022-11-01T10:38:26.657Z,465.00
2022-11-01T10:39:53.313Z,465.00
2022-11-01T10:40:16.387Z,468.00
2022-11-01T10:41:16.333Z,470.00
2022-11-01T10:42:16.370Z,497.00
2022-11-01T10:43:16.376Z,470.00
2022-11-01T10:44:16.323Z,486.00
2022-11-01T10:45:16.335Z,475.00
2022-11-01T10:46:16.295Z,552.00
2022-11-01T10:47:16.401Z,461.00
2022-11-01T10:48:16.270Z,469.00
2022-11-01T10:49:16.269Z,499.00
2022-11-01T10:50:16.321Z,464.00
2022-11-01T10:51:16.272Z,468.00
2022-11-01T10:52:16.244Z,466.00
2022-11-01T10:54:16.215Z,506.00
2022-11-01T10:55:16.290Z,475.00
2022-11-01T10:56:18.606Z,467.00
2022-11-01T10:57:16.273Z,474.00
2022-11-01T10:58:16.209Z,482.00
2022-11-01T10:59:16.203Z,492.00
2022-11-01T11:00:16.212Z,486.00
2022-11-01T11:01:16.360Z,463.00
2022-11-01T11:02:16.220Z,477.00
2022-11-01T11:03:16.172Z,473.00
2022-11-01T11:04:16.140Z,497.00
2022-11-01T11:05:16.220Z,465.00
2022-11-01T11:06:16.099Z,507.00
2022-11-01T11:07:19.944Z,474.00
2022-11-01T11:08:16.112Z,490.00
2022-11-01T11:09:16.119Z,500.00
2022-11-01T11:10:18.324Z,468.00
2022-11-01T11:11:16.084Z,496.00
2022-11-01T11:12:16.079Z,493.00
2022-11-01T11:13:16.072Z,494.00
2022-11-01T11:14:16.059Z,508.00
2022-11-01T11:15:16.120Z,469.00
2022-11-01T11:16:16.036Z,514.00
2022-11-01T11:17:16.044Z,513.00
2022-11-01T11:18:16.006Z,493.00
2022-11-01T11:19:16.014Z,495.00
2022-11-01T11:20:16.017Z,516.00
2022-11-01T11:21:15.996Z,566.00
2022-11-01T11:22:15.965Z,485.00
2022-11-01T11:23:15.977Z,537.00
2022-11-01T11:24:15.929Z,541.00
2022-11-01T11:25:15.929Z,487.00
2022-11-01T11:26:15.976Z,574.00
2022-11-01T11:27:15.944Z,566.00
2022-11-01T11:28:15.881Z,486.00
2022-11-01T11:29:15.906Z,573.00
2022-11-01T11:30:15.868Z,561.00
2022-11-01T11:31:15.881Z,515.00
2022-11-01T11:32:15.859Z,520.00
2022-11-01T11:33:15.889Z,509.00
2022-11-01T11:34:15.881Z,484.00
2022-11-01T11:35:15.819Z,505.00
2022-11-01T11:36:15.823Z,488.00
2022-11-01T11:37:15.786Z,557.00
2022-11-01T11:38:15.804Z,478.00
2022-11-01T11:39:15.819Z,502.00
2022-11-01T11:40:15.842Z,554.00
2022-11-01T11:41:15.776Z,453.00
2022-11-01T11:42:15.778Z,483.00
2022-11-01T11:43:15.758Z,496.00
2022-11-01T11:44:15.719Z,553.00
2022-11-01T11:45:15.726Z,454.00
2022-11-01T11:46:15.739Z,467.00
2022-11-01T11:47:15.694Z,562.00
2022-11-01T11:48:15.715Z,505.00
2022-11-01T11:49:15.935Z,510.00
2022-11-01T11:50:15.774Z,550.00
2022-11-01T11:51:15.670Z,449.00
2022-11-01T11:52:15.670Z,617.00
2022-11-01T11:53:15.639Z,581.00
2022-11-01T11:54:15.638Z,418.00
2022-11-01T11:55:15.614Z,547.00
2022-11-01T11:56:15.582Z,443.00
2022-11-01T11:57:15.575Z,503.00
2022-11-01T11:58:15.587Z,458.00
2022-11-01T11:59:15.583Z,657.00
2022-11-01T12:00:15.584Z,443.00
2022-11-01T12:01:15.746Z,460.00
2022-11-01T12:02:16.098Z,502.00
2022-11-01T12:03:15.573Z,676.00
2022-11-01T12:04:15.501Z,472.00
2022-11-01T12:05:15.554Z,527.00
2022-11-01T12:06:15.486Z,413.00
2022-11-01T12:07:15.475Z,631.00
2022-11-01T12:08:15.523Z,395.00
2022-11-01T12:09:19.307Z,454.00
2022-11-01T12:10:15.532Z,757.00
2022-11-01T12:11:15.461Z,365.00
2022-11-01T12:12:15.469Z,585.00
2022-11-01T12:13:15.452Z,405.00
2022-11-01T12:14:15.419Z,489.00
2022-11-01T12:15:15.421Z,650.00
2022-11-01T12:16:15.481Z,421.00
2022-11-01T12:17:15.382Z,443.00
2022-11-01T12:18:16.108Z,542.00
2022-11-01T12:19:15.372Z,393.00
2022-11-01T12:20:15.516Z,329.00
2022-11-01T12:21:15.369Z,446.00
2022-11-01T12:22:15.348Z,362.00
2022-11-01T12:23:15.317Z,532.00
2022-11-01T12:24:15.372Z,368.00
2022-11-01T12:25:15.342Z,414.00
2022-11-01T12:26:16.656Z,438.00
2022-11-01T12:27:15.270Z,500.00
2022-11-01T12:28:15.327Z,470.00
2022-11-01T12:29:15.288Z,481.00
2022-11-01T12:30:15.264Z,530.00
2022-11-01T12:31:15.356Z,494.00
2022-11-01T12:32:15.267Z,484.00
2022-11-01T12:34:15.206Z,483.00
2022-11-01T12:35:15.213Z,527.00
2022-11-01T12:36:15.220Z,470.00
2022-11-01T12:37:15.159Z,502.00
2022-11-01T12:38:15.167Z,456.00
2022-11-01T12:39:15.173Z,631.00
2022-11-01T12:40:15.171Z,410.00
2022-11-01T12:41:15.132Z,463.00
2022-11-01T12:42:15.121Z,512.00
2022-11-01T12:43:15.128Z,435.00
2022-11-01T12:44:15.089Z,454.00
2022-11-01T12:45:15.130Z,444.00
2022-11-01T12:46:15.099Z,717.00
2022-11-01T12:47:15.082Z,370.00
2022-11-01T12:48:15.084Z,389.00
2022-11-01T12:49:15.075Z,397.00
2022-11-01T12:50:15.046Z,468.00
2022-11-01T12:51:15.049Z,454.00
2022-11-01T12:52:15.063Z,407.00
2022-11-01T12:53:15.118Z,443.00
2022-11-01T12:54:14.996Z,417.00
2022-11-01T12:55:17.987Z,405.00